Terminal Aerodrome Forecast
Issued by NWS

Home | Current Version | Previous Version | Graphics & Text | Print | Product List | Glossary On
Versions: 1 2 3 4 5 6 7 8 9 10 11 12 13
000
FTUS43 KMPX 021140
TAFRWF
TAF
KRWF 021140Z 0212/0312 22007KT P6SM SKC
     FM021900 16015G23KT P6SM FEW070 BKN100
     FM030500 16014KT P6SM VCSH OVC050
     FM030900 16008KT 2SM -SN BR OVC008=

USA.gov is the U.S. government's official web portal to all federal, state and local government web resources and services.